Aviation Digital Data Service (ADDS)

Output produced by TAFs form (0050 UTC 23 December 2014)
found at http://www.aviationweather.gov/adds/tafs/
 
KPSF 222320Z 2300/2324 08004KT P6SM BKN015 OVC035 
     TEMPO 2301/2303 4SM -RAPLDZ BR OVC014 
     FM230300 09003KT 4SM -RAPL BR SCT008 OVC015 
     TEMPO 2303/2306 1 1/2SM -RAPL BR BKN008 OVC012 
     FM230800 09003KT 2SM -RA BR OVC006 
     FM231500 09005KT 5SM -RA BR OVC006